Time;durP1;ratioP1;P1;durP2;ratioP2;P2;SDS_P1;SDS_P2;PMS_P1;PMS_P2;Temp;Humidity;BMP_temperature;BMP_pressure;BME280_temperature;BME280_humidity;BME280_pressure;Samples;Min_cycle;Max_cycle;Signal;HPM_P1;HPM_P2
2023/01/05 00:01:02;;;;;;;30.70;18.00;;;;;;;8.88;84.88;97836.69;5046743;28;20206;-71
2023/01/05 00:03:30;;;;;;;29.60;17.27;;;;;;;8.97;84.13;97839.00;5045735;28;20597;-73
2023/01/05 00:06:01;;;;;;;25.27;17.60;;;;;;;8.85;84.70;97841.91;5046873;28;20226;-72
2023/01/05 00:08:28;;;;;;;25.63;16.93;;;;;;;8.84;84.70;97835.88;5045343;28;20198;-72
2023/01/05 00:22:37;;;;;;;28.57;17.00;;;;;;;8.62;85.95;97839.91;5049204;28;20502;-74
2023/01/05 00:25:06;;;;;;;31.60;17.90;;;;;;;8.82;85.22;97840.25;5049656;28;20760;-74
2023/01/05 00:27:41;;;;;;;30.17;17.70;;;;;;;8.84;85.01;97833.31;5050124;28;20229;-74
2023/01/05 00:30:13;;;;;;;29.80;16.97;;;;;;;8.88;84.73;97832.34;5047575;28;20659;-75
2023/01/05 00:32:41;;;;;;;29.07;17.50;;;;;;;8.79;84.79;97837.75;5050106;28;20226;-74
2023/01/05 00:35:10;;;;;;;31.33;17.90;;;;;;;8.73;84.56;97831.91;5048793;28;20647;-75
2023/01/05 00:37:38;;;;;;;30.50;16.53;;;;;;;8.79;84.88;97829.16;5049792;28;20677;-75
2023/01/05 00:40:07;;;;;;;33.27;17.07;;;;;;;8.77;84.77;97816.31;5049850;28;20622;-75
2023/01/05 00:42:34;;;;;;;29.87;17.37;;;;;;;8.84;84.75;97804.06;5048880;28;20227;-74
2023/01/05 00:45:01;;;;;;;26.43;16.93;;;;;;;8.64;85.31;97817.50;5048780;28;20574;-74
2023/01/05 00:47:29;;;;;;;28.97;16.77;;;;;;;8.66;85.03;97809.69;5046941;28;20729;-74
2023/01/05 00:49:56;;;;;;;26.40;17.23;;;;;;;8.67;85.42;97816.56;5050014;28;20197;-74
2023/01/05 00:52:23;;;;;;;27.63;16.53;;;;;;;8.62;85.33;97818.41;5047094;28;20218;-73
2023/01/05 00:54:50;;;;;;;30.43;17.50;;;;;;;8.83;84.39;97810.97;5050043;28;20202;-72
2023/01/05 00:57:17;;;;;;;30.60;17.27;;;;;;;8.88;84.23;97811.69;5049501;28;20201;-73
2023/01/05 00:59:44;;;;;;;24.90;17.07;;;;;;;8.88;83.91;97813.44;5047417;28;20661;-73
2023/01/05 01:02:13;;;;;;;26.77;16.37;;;;;;;8.85;84.05;97805.75;5048387;28;20189;-73
2023/01/05 01:04:40;;;;;;;25.17;15.00;;;;;;;8.94;83.85;97811.50;5048003;28;20693;-74
2023/01/05 01:07:07;;;;;;;28.73;17.17;;;;;;;8.83;84.43;97798.06;5049464;28;20634;-74
2023/01/05 01:09:34;;;;;;;30.40;17.50;;;;;;;8.78;84.67;97805.06;5046662;28;20750;-74
2023/01/05 01:12:02;;;;;;;26.80;16.23;;;;;;;8.60;85.10;97791.78;5047985;28;20773;-74
2023/01/05 01:14:29;;;;;;;28.43;15.87;;;;;;;8.60;85.29;97796.94;5048587;28;20218;-73
2023/01/05 01:16:56;;;;;;;27.73;15.60;;;;;;;8.47;85.97;97780.94;5047167;28;20182;-73
2023/01/05 01:19:26;;;;;;;22.43;15.53;;;;;;;8.53;85.67;97798.00;5048024;28;20194;-73
2023/01/05 01:21:53;;;;;;;25.00;16.17;;;;;;;8.53;85.92;97798.00;5047833;28;20182;-73
2023/01/05 01:24:24;;;;;;;25.53;14.70;;;;;;;8.50;86.57;97780.88;5049322;28;20197;-72
2023/01/05 01:26:52;;;;;;;27.63;16.30;;;;;;;8.49;86.64;97780.91;5047744;28;20645;-72
2023/01/05 01:29:20;;;;;;;26.97;17.03;;;;;;;8.58;86.16;97784.09;5046925;28;20265;-75
2023/01/05 01:31:48;;;;;;;26.63;16.17;;;;;;;8.55;86.28;97767.84;5048549;28;20657;-74
2023/01/05 01:34:16;;;;;;;30.63;16.30;;;;;;;8.59;85.89;97770.31;5048357;28;20244;-75
2023/01/05 01:36:43;;;;;;;28.70;17.03;;;;;;;8.64;86.07;97773.59;5048221;28;20268;-74
2023/01/05 01:39:12;;;;;;;28.70;17.13;;;;;;;8.88;85.20;97751.44;5046787;28;20263;-73
2023/01/05 01:41:43;;;;;;;27.37;17.00;;;;;;;8.77;84.41;97754.31;5047673;28;20715;-73
2023/01/05 01:44:47;;;;;;;27.17;17.23;;;;;;;8.67;85.24;97759.78;5046003;28;20685;-72
2023/01/05 01:47:32;;;;;;;28.37;17.60;;;;;;;8.65;85.06;97746.06;5046891;28;20189;-73
2023/01/05 01:50:03;;;;;;;29.17;16.33;;;;;;;8.90;85.10;97747.91;5048918;28;20197;-73
2023/01/05 01:52:32;;;;;;;31.90;18.90;;;;;;;8.93;83.82;97745.25;5047308;28;20332;-71
2023/01/05 01:55:00;;;;;;;28.07;16.93;;;;;;;8.93;83.72;97732.34;5048805;28;20224;-72
2023/01/05 01:57:29;;;;;;;27.60;17.83;;;;;;;8.87;83.71;97737.69;5047666;28;20213;-73
2023/01/05 01:59:59;;;;;;;32.60;17.90;;;;;;;8.77;84.43;97714.75;5046938;28;20192;-72
2023/01/05 02:02:32;;;;;;;28.87;16.67;;;;;;;9.04;83.53;97732.03;5047314;28;20247;-72
2023/01/05 02:05:05;;;;;;;28.47;17.17;;;;;;;9.15;83.17;97731.75;5045709;28;20351;-72
2023/01/05 02:07:36;;;;;;;28.57;17.20;;;;;;;9.09;83.43;97731.91;5048595;28;20311;-73
2023/01/05 02:10:03;;;;;;;30.80;18.00;;;;;;;9.23;82.39;97716.84;5047018;28;20723;-73
2023/01/05 02:12:46;;;;;;;25.27;16.77;;;;;;;9.19;82.95;97716.06;5047285;28;20759;-72
2023/01/05 02:15:27;;;;;;;28.73;16.97;;;;;;;9.26;82.20;97715.00;5047836;28;20193;-72
2023/01/05 02:18:24;;;;;;;26.53;17.17;;;;;;;9.29;82.11;97714.09;5046756;28;20634;-71
2023/01/05 02:21:15;;;;;;;26.50;16.37;;;;;;;9.28;82.00;97718.41;5048015;28;20746;-72
2023/01/05 02:24:18;;;;;;;30.77;18.87;;;;;;;9.08;82.63;97715.56;5043940;28;20229;-72
2023/01/05 02:27:24;;;;;;;28.90;17.33;;;;;;;9.02;83.18;97710.56;5043304;28;20704;-75
2023/01/05 02:30:03;;;;;;;24.40;17.80;;;;;;;8.91;83.60;97712.59;5028902;28;20610;-73
2023/01/05 02:32:33;;;;;;;34.97;20.00;;;;;;;8.89;83.56;97704.06;5028364;28;20229;-74
2023/01/05 02:35:15;;;;;;;30.63;19.63;;;;;;;8.85;83.26;97705.88;5045706;28;20779;-73
2023/01/05 02:38:10;;;;;;;34.50;19.53;;;;;;;8.87;83.92;97711.00;5046804;28;20198;-74
2023/01/05 02:40:47;;;;;;;30.43;18.77;;;;;;;9.06;83.27;97712.19;5028616;28;20584;-72
2023/01/05 02:43:19;;;;;;;31.17;19.27;;;;;;;9.15;82.90;97704.13;5046440;28;20220;-74
2023/01/05 02:45:47;;;;;;;30.40;18.47;;;;;;;9.15;82.62;97693.81;5047745;28;20695;-74
2023/01/05 02:48:14;;;;;;;26.77;17.97;;;;;;;9.26;82.14;97699.50;5044897;28;20662;-72
2023/01/05 02:51:00;;;;;;;30.33;18.90;;;;;;;9.03;82.52;97694.16;5046428;28;20201;-71
2023/01/05 02:53:32;;;;;;;28.53;18.60;;;;;;;9.13;82.47;97682.66;5044820;28;20226;-72
2023/01/05 02:56:19;;;;;;;26.67;18.03;;;;;;;9.17;82.21;97683.44;5046282;28;20205;-74
2023/01/05 02:59:01;;;;;;;33.80;18.40;;;;;;;9.08;82.48;97668.19;5047554;28;20206;-73
2023/01/05 03:01:41;;;;;;;31.43;18.37;;;;;;;8.95;83.18;97667.72;5044684;28;20189;-72
2023/01/05 03:04:16;;;;;;;29.93;19.27;;;;;;;8.98;83.04;97658.13;5047524;28;20220;-74
2023/01/05 03:06:55;;;;;;;27.23;18.37;;;;;;;9.19;82.40;97674.72;5045094;28;20205;-73
2023/01/05 03:09:27;;;;;;;28.93;18.87;;;;;;;9.26;81.80;97671.09;5045609;28;20186;-73
2023/01/05 03:15:30;;;;;;;28.00;17.53;;;;;;;9.21;81.91;97646.28;5044609;28;20212;-74
2023/01/05 03:18:03;;;;;;;26.77;16.30;;;;;;;9.33;81.70;97670.00;5045542;28;20693;-73
2023/01/05 03:20:32;;;;;;;28.97;16.67;;;;;;;9.36;81.81;97659.56;5046115;28;20644;-75
2023/01/05 03:37:51;;;;;;;26.43;16.23;;;;;;;9.17;82.71;97647.28;5042478;28;20190;-74
2023/01/05 03:40:33;;;;;;;26.70;16.43;;;;;;;9.12;83.29;97650.00;5025886;28;20191;-72
2023/01/05 03:43:02;;;;;;;24.90;16.33;;;;;;;9.02;83.18;97643.41;5027395;28;20186;-73
2023/01/05 03:45:40;;;;;;;28.07;16.30;;;;;;;8.93;83.40;97641.09;5024637;28;20698;-72
2023/01/05 03:48:12;;;;;;;33.07;17.07;;;;;;;8.85;84.44;97637.88;5025639;28;20226;-72
2023/01/05 03:50:39;;;;;;;26.87;16.47;;;;;;;8.84;84.19;97638.78;5025868;28;20186;-71
2023/01/05 03:53:11;;;;;;;29.10;17.70;;;;;;;8.84;84.75;97639.63;5026784;28;20199;-71
2023/01/05 03:55:38;;;;;;;31.30;17.40;;;;;;;8.94;83.64;97624.72;5029793;28;20197;-73
2023/01/05 03:58:06;;;;;;;30.53;18.13;;;;;;;8.90;84.55;97639.44;5044815;28;20195;-73
2023/01/05 04:00:34;;;;;;;31.30;17.07;;;;;;;8.87;84.35;97638.69;5029533;28;20209;-71
2023/01/05 04:03:09;;;;;;;30.10;17.77;;;;;;;8.97;84.38;97634.94;5028531;28;20179;-72
2023/01/05 04:05:37;;;;;;;27.37;16.87;;;;;;;8.76;84.20;97604.56;5030269;28;20669;-72
2023/01/05 04:08:05;;;;;;;28.13;17.67;;;;;;;8.88;84.03;97623.13;5030818;28;20199;-72
2023/01/05 04:10:34;;;;;;;27.53;17.57;;;;;;;9.01;83.88;97628.78;5028120;28;20219;-71
2023/01/05 04:13:01;;;;;;;34.83;19.73;;;;;;;9.07;83.01;97631.19;5190253;22;20237;-83
2023/01/05 04:15:28;;;;;;;27.97;18.03;;;;;;;9.02;83.22;97617.56;5045897;28;20447;-85
2023/01/05 04:17:55;;;;;;;32.50;18.43;;;;;;;9.09;83.69;97611.31;5052349;28;20198;-69
2023/01/05 04:20:22;;;;;;;31.83;19.93;;;;;;;9.10;83.51;97613.03;5055754;28;20197;-83
2023/01/05 04:22:51;;;;;;;35.43;20.00;;;;;;;9.01;83.52;97602.94;5053362;28;20227;-85
2023/01/05 04:25:20;;;;;;;35.57;21.57;;;;;;;9.01;83.53;97614.13;5053480;28;20194;-84
2023/01/05 04:27:47;;;;;;;32.43;20.80;;;;;;;9.12;83.36;97618.13;5053108;28;20621;-80
2023/01/05 04:30:16;;;;;;;34.80;21.50;;;;;;;8.97;83.61;97624.59;5052903;28;20263;-84
2023/01/05 04:32:43;;;;;;;35.93;22.07;;;;;;;8.92;84.23;97606.66;5044634;28;20729;-81
2023/01/05 04:35:14;;;;;;;39.80;21.37;;;;;;;8.88;84.69;97612.81;5038452;28;20284;-73
2023/01/05 04:37:41;;;;;;;35.17;20.30;;;;;;;8.92;83.94;97613.59;5029485;28;20719;-79
2023/01/05 04:40:10;;;;;;;41.80;21.50;;;;;;;8.99;84.01;97599.56;5029622;28;20233;-75
2023/01/05 04:42:46;;;;;;;39.37;22.63;;;;;;;9.06;83.62;97608.84;5029507;28;20576;-69
2023/01/05 04:45:14;;;;;;;40.23;20.67;;;;;;;9.04;83.69;97600.28;5028127;28;20191;-80
2023/01/05 04:47:41;;;;;;;38.90;23.77;;;;;;;9.03;83.24;97594.28;5029295;28;20661;-81
2023/01/05 04:50:11;;;;;;;43.10;24.60;;;;;;;8.90;83.70;97599.88;5028918;28;20200;-84
2023/01/05 04:52:39;;;;;;;40.03;22.17;;;;;;;8.70;84.62;97597.88;5038127;28;20285;-84
2023/01/05 04:55:07;;;;;;;43.47;26.13;;;;;;;8.65;84.62;97584.25;5040036;28;20225;-82
2023/01/05 04:57:35;;;;;;;35.50;22.77;;;;;;;8.76;85.01;97595.09;5034358;28;20190;-80
2023/01/05 05:00:03;;;;;;;44.20;24.43;;;;;;;8.85;84.17;97588.81;5012933;28;20183;-87
2023/01/05 05:02:32;;;;;;;42.27;24.93;;;;;;;8.95;84.36;97609.16;5040205;28;20672;-71
2023/01/05 05:04:59;;;;;;;47.63;24.70;;;;;;;8.97;83.98;97604.78;5053366;28;20178;-84
2023/01/05 05:07:27;;;;;;;40.40;25.47;;;;;;;9.02;83.86;97599.50;5050138;28;20216;-85
2023/01/05 05:09:54;;;;;;;45.90;22.73;;;;;;;8.92;83.93;97603.25;5051768;28;20677;-83
2023/01/05 05:12:21;;;;;;;37.00;21.83;;;;;;;8.90;84.25;97603.28;5048118;28;20253;-86
2023/01/05 05:14:50;;;;;;;32.30;21.00;;;;;;;8.91;84.38;97604.13;5048889;28;20214;-79
2023/01/05 05:17:17;;;;;;;41.93;22.23;;;;;;;8.89;83.88;97599.00;5048439;28;20701;-86
2023/01/05 05:19:45;;;;;;;41.33;24.13;;;;;;;8.83;84.00;97596.63;5047310;28;20192;-78
2023/01/05 05:22:12;;;;;;;39.63;23.27;;;;;;;8.80;83.74;97585.50;5042478;28;20204;-75
2023/01/05 05:24:40;;;;;;;31.50;20.70;;;;;;;8.70;84.81;97592.69;5041211;28;20672;-76
2023/01/05 05:27:07;;;;;;;34.67;21.13;;;;;;;8.64;85.51;97584.28;5027540;28;20195;-74
2023/01/05 05:29:34;;;;;;;33.60;20.90;;;;;;;8.77;84.48;97583.03;5031092;28;20198;-77
2023/01/05 05:32:02;;;;;;;32.07;19.07;;;;;;;8.82;84.49;97588.94;5029351;28;20195;-84
2023/01/05 05:34:29;;;;;;;36.33;20.80;;;;;;;8.64;84.71;97573.97;5028385;28;20720;-71
2023/01/05 05:36:56;;;;;;;38.40;21.40;;;;;;;8.67;84.12;97569.56;5028147;28;20241;-73
2023/01/05 05:39:23;;;;;;;35.40;20.00;;;;;;;8.58;84.66;97558.66;5027977;28;20187;-72
2023/01/05 05:41:50;;;;;;;33.10;20.50;;;;;;;8.59;85.51;97565.53;5025860;28;20190;-76
2023/01/05 05:44:17;;;;;;;36.00;21.03;;;;;;;8.60;84.56;97560.31;5028612;28;20647;-69
2023/01/05 05:46:44;;;;;;;33.83;20.87;;;;;;;8.59;85.29;97573.25;5027248;28;20182;-70
2023/01/05 05:49:11;;;;;;;36.77;23.03;;;;;;;8.73;84.87;97578.88;5028690;28;20191;-71
2023/01/05 05:51:38;;;;;;;36.23;23.27;;;;;;;8.78;84.59;97579.56;5026380;28;20217;-72
2023/01/05 05:54:05;;;;;;;37.70;21.97;;;;;;;8.83;84.55;97580.28;5026909;28;20692;-75
2023/01/05 05:56:32;;;;;;;46.70;23.80;;;;;;;8.83;84.64;97578.53;5028540;28;20183;-83
2023/01/05 05:59:00;;;;;;;36.80;23.53;;;;;;;8.91;84.39;97578.31;5025572;28;20369;-82
2023/01/05 06:01:28;;;;;;;40.33;23.73;;;;;;;8.92;84.05;97567.09;5027408;28;20205;-73
2023/01/05 06:03:56;;;;;;;42.73;23.37;;;;;;;8.91;84.13;97578.31;5025545;28;20193;-81
2023/01/05 06:06:23;;;;;;;37.77;21.37;;;;;;;8.98;83.66;97587.56;5028570;28;20289;-82
2023/01/05 06:08:50;;;;;;;41.63;23.27;;;;;;;8.90;84.21;97574.88;5026599;28;20807;-80
2023/01/05 06:11:17;;;;;;;43.93;23.73;;;;;;;8.94;83.87;97567.88;5028749;28;20245;-77
2023/01/05 06:13:44;;;;;;;36.97;23.93;;;;;;;8.92;83.75;97574.84;5028962;28;20222;-81
2023/01/05 06:16:17;;;;;;;45.47;25.47;;;;;;;8.93;83.53;97579.94;5010475;28;20198;-86
2023/01/05 06:18:46;;;;;;;36.67;23.57;;;;;;;8.85;83.79;97561.25;5027753;28;20210;-71
2023/01/05 06:21:13;;;;;;;38.23;22.80;;;;;;;8.93;83.73;97566.19;5027365;28;20191;-69
2023/01/05 06:23:40;;;;;;;60.23;24.90;;;;;;;8.91;84.55;97566.25;5028506;28;20257;-72
2023/01/05 06:26:07;;;;;;;40.57;22.97;;;;;;;8.97;84.09;97566.06;5025752;28;20681;-83
2023/01/05 06:28:34;;;;;;;41.53;23.33;;;;;;;8.89;83.85;97568.03;5011167;28;20193;-80
2023/01/05 06:31:02;;;;;;;39.23;23.23;;;;;;;8.98;83.51;97565.13;5010815;28;20210;-81
2023/01/05 06:33:31;;;;;;;41.10;24.77;;;;;;;8.78;84.39;97541.66;5008965;28;20232;-80
2023/01/05 06:35:58;;;;;;;47.37;25.50;;;;;;;8.87;84.43;97553.47;5028417;28;20257;-81
2023/01/05 06:38:26;;;;;;;45.37;26.43;;;;;;;8.83;84.29;97539.81;5026500;28;20183;-79
2023/01/05 06:40:53;;;;;;;38.33;24.10;;;;;;;8.77;84.34;97534.84;5026547;28;20202;-83
2023/01/05 06:43:20;;;;;;;43.60;25.63;;;;;;;8.78;84.72;97545.97;5026050;28;20244;-83
2023/01/05 06:45:47;;;;;;;43.73;27.20;;;;;;;8.84;84.94;97536.31;5027590;28;20189;-75
2023/01/05 06:48:14;;;;;;;50.77;26.23;;;;;;;8.77;84.28;97541.72;5025400;28;20591;-77
2023/01/05 06:50:41;;;;;;;41.93;25.40;;;;;;;8.76;84.76;97535.72;5025484;28;20697;-81
2023/01/05 06:53:09;;;;;;;42.07;24.93;;;;;;;8.72;84.90;97541.84;5026130;28;20211;-68
2023/01/05 06:55:36;;;;;;;40.97;23.93;;;;;;;8.71;85.22;97555.69;5024385;28;20234;-69
2023/01/05 06:58:03;;;;;;;45.93;25.43;;;;;;;8.72;85.31;97556.50;5010838;28;20674;-75
2023/01/05 07:00:30;;;;;;;41.23;25.57;;;;;;;8.75;84.92;97551.25;5024602;28;20194;-80
2023/01/05 07:02:57;;;;;;;48.20;27.33;;;;;;;8.65;84.94;97539.53;4993648;28;20191;-75
2023/01/05 07:05:24;;;;;;;46.67;28.00;;;;;;;8.58;85.65;97548.31;5027206;28;20281;-80
2023/01/05 07:07:51;;;;;;;44.80;24.97;;;;;;;8.66;85.00;97543.78;5027094;28;20195;-78
2023/01/05 07:10:18;;;;;;;46.53;25.33;;;;;;;8.84;84.72;97538.06;5009533;28;20583;-69
2023/01/05 07:12:45;;;;;;;46.23;25.67;;;;;;;8.82;84.67;97543.28;5025667;28;20222;-72
2023/01/05 07:15:12;;;;;;;46.13;25.43;;;;;;;8.92;84.40;97534.34;5027389;28;20309;-76
2023/01/05 07:17:39;;;;;;;54.97;27.77;;;;;;;8.84;83.86;97528.56;5025755;28;20818;-74
2023/01/05 07:20:07;;;;;;;42.40;23.93;;;;;;;8.81;84.46;97528.69;5027457;28;20214;-72
2023/01/05 07:22:34;;;;;;;46.10;25.77;;;;;;;8.91;84.07;97526.66;5024694;28;20210;-75
2023/01/05 07:25:01;;;;;;;54.33;26.43;;;;;;;8.95;83.72;97528.25;5009308;28;20773;-74
2023/01/05 07:27:32;;;;;;;43.87;26.13;;;;;;;8.93;83.49;97499.88;5026737;28;20199;-72
2023/01/05 07:30:09;;;;;;;;;;;;;;;;;;;;;
2023/01/05 07:32:39;;;;;;;45.73;26.13;;;;;;;8.76;83.86;97472.88;5031279;28;20640;-83
2023/01/05 07:35:07;;;;;;;47.40;27.13;;;;;;;8.97;83.80;97510.94;5012168;28;20236;-86
2023/01/05 07:37:34;;;;;;;40.50;25.43;;;;;;;8.92;84.05;97526.59;5031535;28;20194;-73
2023/01/05 07:40:01;;;;;;;41.33;23.53;;;;;;;9.04;83.82;97522.78;5029685;28;20195;-78
2023/01/05 07:42:30;;;;;;;43.93;24.57;;;;;;;8.95;84.27;97525.66;5030731;28;20187;-73
2023/01/05 07:44:58;;;;;;;39.60;21.97;;;;;;;8.65;83.70;97462.06;5028955;28;20245;-70
2023/01/05 07:47:25;;;;;;;40.80;22.70;;;;;;;8.92;84.27;97503.34;5011425;28;20194;-70
2023/01/05 07:49:55;;;;;;;39.30;23.00;;;;;;;8.88;84.26;97485.44;4996826;28;20194;-77
2023/01/05 07:52:23;;;;;;;38.30;21.80;;;;;;;9.12;83.46;97513.06;5028469;28;20199;-76
2023/01/05 07:54:51;;;;;;;35.83;21.23;;;;;;;8.50;83.21;97416.09;4997404;28;20646;-74
2023/01/05 07:57:18;;;;;;;34.57;21.43;;;;;;;9.00;83.75;97500.53;5011188;28;20681;-72
2023/01/05 07:59:46;;;;;;;33.63;20.63;;;;;;;9.00;83.99;97506.53;4996781;28;20287;-71
2023/01/05 08:02:14;;;;;;;37.83;23.20;;;;;;;8.72;84.04;97443.75;5011908;28;20194;-69
2023/01/05 08:04:41;;;;;;;37.33;22.93;;;;;;;8.95;84.33;97481.75;4996327;28;20218;-75
2023/01/05 08:07:10;;;;;;;40.23;24.83;;;;;;;9.06;83.88;97500.34;5012416;28;20199;-77
2023/01/05 08:12:24;;;;;;;42.87;25.00;;;;;;;9.19;83.32;97488.69;5030558;28;20238;-86
2023/01/05 08:14:52;;;;;;;45.17;26.47;;;;;;;8.97;83.72;97449.81;5027482;28;20288;-78
2023/01/05 08:17:20;;;;;;;43.63;25.60;;;;;;;9.19;83.76;97483.53;5013208;28;20293;-70
2023/01/05 08:19:48;;;;;;;38.27;22.70;;;;;;;9.23;83.51;97486.88;5028854;28;20194;-82
2023/01/05 08:22:15;;;;;;;35.03;23.10;;;;;;;9.06;83.00;97438.34;5030291;28;20677;-69
2023/01/05 08:24:42;;;;;;;44.97;24.90;;;;;;;9.28;83.61;97466.88;5013422;28;20575;-86
2023/01/05 08:27:10;;;;;;;40.90;23.77;;;;;;;9.16;82.55;97447.47;5028488;28;20187;-86
2023/01/05 08:29:37;;;;;;;41.60;24.10;;;;;;;9.26;82.80;97458.31;5029780;28;20817;-80
2023/01/05 08:32:04;;;;;;;41.13;23.63;;;;;;;9.43;82.08;97466.34;5029747;28;20263;-71
2023/01/05 08:34:31;;;;;;;42.03;24.00;;;;;;;9.37;82.05;97441.56;5034170;28;20685;-75
2023/01/05 08:37:00;;;;;;;38.80;24.30;;;;;;;9.46;81.38;97417.16;5031152;28;20621;-72
2023/01/05 08:39:30;;;;;;;39.73;22.77;;;;;;;9.82;81.19;97437.34;5033864;28;20226;-77
2023/01/05 08:41:57;;;;;;;37.40;23.47;;;;;;;10.09;79.28;97429.47;5032211;28;20642;-73
2023/01/05 08:44:28;;;;;;;37.70;22.47;;;;;;;10.30;78.51;97433.88;5028528;28;20681;-70
2023/01/05 08:46:56;;;;;;;34.70;21.83;;;;;;;10.47;78.11;97446.97;5031274;28;20183;-68
2023/01/05 08:49:23;;;;;;;37.47;22.07;;;;;;;10.56;76.60;97439.72;5030851;28;20240;-78
2023/01/05 08:51:50;;;;;;;39.50;22.23;;;;;;;10.86;75.89;97445.41;5013866;28;20686;-82
2023/01/05 08:54:17;;;;;;;31.90;22.13;;;;;;;10.65;75.99;97425.56;5027945;28;20265;-81
2023/01/05 08:56:45;;;;;;;30.10;19.60;;;;;;;10.35;75.88;97390.50;5029294;28;20226;-81
2023/01/05 08:59:12;;;;;;;35.13;20.63;;;;;;;10.27;76.13;97400.31;5030080;28;20188;-85
2023/01/05 09:01:40;;;;;;;35.07;19.83;;;;;;;10.45;75.76;97397.00;5027487;28;20211;-80
2023/01/05 09:04:10;;;;;;;36.20;21.47;;;;;;;10.65;75.77;97422.97;5028479;28;20183;-69
2023/01/05 09:06:38;;;;;;;30.00;19.50;;;;;;;10.70;74.77;97433.97;5028430;28;20759;-73
2023/01/05 09:09:05;;;;;;;32.50;21.50;;;;;;;10.73;74.99;97418.34;5028186;28;20770;-69
2023/01/05 09:11:33;;;;;;;40.43;25.00;;;;;;;10.47;74.63;97364.97;5009930;28;20198;-84
2023/01/05 09:14:01;;;;;;;33.27;20.63;;;;;;;10.99;74.28;97410.31;5028021;28;20234;-75
2023/01/05 09:16:31;;;;;;;33.13;20.80;;;;;;;11.00;73.60;97408.59;5027362;28;20231;-70
2023/01/05 09:19:18;;;;;;;35.60;22.50;;;;;;;11.13;73.08;97401.97;5027512;28;20268;-67
2023/01/05 09:21:45;;;;;;;31.17;19.00;;;;;;;11.15;72.20;97401.00;5028749;28;20225;-72
2023/01/05 09:24:13;;;;;;;31.03;18.80;;;;;;;11.24;72.02;97376.44;5027203;28;20651;-69
2023/01/05 09:26:41;;;;;;;29.13;19.57;;;;;;;11.11;71.63;97373.53;5027774;28;20281;-67
2023/01/05 09:29:09;;;;;;;30.77;17.97;;;;;;;11.41;70.94;97379.16;5027409;28;20192;-69
2023/01/05 09:31:38;;;;;;;32.00;19.17;;;;;;;11.52;70.88;97373.50;5028410;28;20195;-71
2023/01/05 09:34:05;;;;;;;30.63;18.77;;;;;;;11.40;70.94;97360.16;5028053;28;20201;-75
2023/01/05 09:36:32;;;;;;;31.37;20.13;;;;;;;11.49;70.33;97358.91;5027115;28;20219;-73
2023/01/05 09:38:59;;;;;;;28.27;18.03;;;;;;;11.54;69.19;97337.97;5028864;28;20691;-79
2023/01/05 09:41:37;;;;;;;32.87;19.33;;;;;;;11.63;69.66;97337.53;5025555;28;20197;-74
2023/01/05 09:44:22;;;;;;;29.93;18.83;;;;;;;11.74;69.33;97332.75;5027125;28;20251;-76
2023/01/05 09:46:51;;;;;;;27.90;18.43;;;;;;;11.85;69.20;97320.13;5026929;28;20226;-73
2023/01/05 09:49:21;;;;;;;31.47;19.27;;;;;;;12.00;68.89;97322.00;5026101;28;20202;-75
2023/01/05 09:51:57;;;;;;;29.07;17.43;;;;;;;12.23;68.57;97304.44;5028230;28;20283;-72
2023/01/05 09:54:28;;;;;;;31.17;17.37;;;;;;;12.31;67.37;97296.25;5026194;28;20254;-69
2023/01/05 09:56:57;;;;;;;27.17;18.37;;;;;;;12.32;67.31;97290.16;5026297;28;20237;-73
2023/01/05 09:59:40;;;;;;;25.40;17.17;;;;;;;12.43;66.46;97281.81;5027014;28;20200;-69
2023/01/05 10:02:42;;;;;;;30.67;18.83;;;;;;;12.62;66.32;97277.41;5026077;28;20280;-84
2023/01/05 10:05:13;;;;;;;32.67;17.77;;;;;;;12.52;66.50;97282.22;5028590;28;20741;-72
2023/01/05 10:07:50;;;;;;;24.83;15.03;;;;;;;12.75;65.23;97271.53;5026576;28;20239;-69
2023/01/05 10:10:31;;;;;;;24.80;16.97;;;;;;;12.71;64.82;97266.56;5010041;28;20292;-72
2023/01/05 10:13:05;;;;;;;25.33;15.33;;;;;;;12.62;64.76;97264.41;5029584;28;20776;-71
2023/01/05 10:15:38;;;;;;;19.53;13.70;;;;;;;12.33;64.74;97263.25;5025502;28;20748;-71
2023/01/05 10:18:29;;;;;;;19.97;14.47;;;;;;;12.31;65.13;97257.31;4994398;28;20195;-72
2023/01/05 10:21:15;;;;;;;24.13;14.03;;;;;;;12.37;64.99;97266.53;5026965;28;20248;-78
2023/01/05 10:24:16;;;;;;;22.73;14.33;;;;;;;12.47;64.35;97255.63;5026800;28;20187;-82
2023/01/05 10:27:05;;;;;;;22.40;14.30;;;;;;;12.25;64.69;97261.06;5028349;28;20195;-82
2023/01/05 10:30:20;;;;;;;23.17;16.20;;;;;;;12.31;64.41;97246.06;5026992;28;20708;-73
2023/01/05 10:32:59;;;;;;;30.70;22.23;;;;;;;12.28;65.41;97236.69;5025820;28;20559;-76
2023/01/05 10:36:04;;;;;;;21.47;15.10;;;;;;;12.33;64.68;97237.28;5026667;28;20560;-77
2023/01/05 10:38:50;;;;;;;22.70;15.60;;;;;;;12.25;64.82;97236.84;5027554;28;20699;-70
2023/01/05 10:41:28;;;;;;;22.63;16.00;;;;;;;12.24;64.60;97223.00;5026446;28;20199;-75
2023/01/05 10:44:10;;;;;;;22.43;14.97;;;;;;;12.50;64.83;97223.47;5026067;28;20667;-83
2023/01/05 10:46:41;;;;;;;24.43;15.53;;;;;;;12.46;64.16;97211.56;5024465;28;20202;-78
2023/01/05 10:49:25;;;;;;;21.57;15.47;;;;;;;12.51;64.40;97207.78;5027733;28;20192;-75
2023/01/05 10:51:54;;;;;;;22.80;15.07;;;;;;;12.48;65.00;97202.78;5026987;28;20185;-85
2023/01/05 10:54:38;;;;;;;24.50;15.23;;;;;;;12.58;63.95;97197.94;5026060;28;20691;-79
2023/01/05 10:57:27;;;;;;;20.73;14.73;;;;;;;12.60;64.29;97203.91;5025954;28;20217;-72
2023/01/05 11:00:04;;;;;;;22.53;15.27;;;;;;;12.72;62.99;97205.84;5026025;28;20222;-69
2023/01/05 11:02:37;;;;;;;21.47;13.73;;;;;;;12.71;62.60;97194.66;5025955;28;20188;-69
2023/01/05 11:05:11;;;;;;;19.07;13.13;;;;;;;12.61;62.29;97193.41;5027324;28;20201;-70
2023/01/05 11:08:04;;;;;;;19.67;13.67;;;;;;;12.76;62.38;97179.66;5007636;28;20190;-68
2023/01/05 11:10:55;;;;;;;18.77;12.47;;;;;;;12.75;61.98;97170.19;5020227;28;20196;-75
2023/01/05 11:13:41;;;;;;;19.33;12.47;;;;;;;12.70;60.87;97155.72;5025725;28;20228;-76
2023/01/05 11:16:14;;;;;;;18.53;12.43;;;;;;;12.90;60.10;97158.97;5024091;28;20251;-76
2023/01/05 11:18:54;;;;;;;20.87;13.70;;;;;;;12.95;60.25;97151.78;5027061;28;20224;-75
2023/01/05 11:21:27;;;;;;;19.73;12.63;;;;;;;13.03;59.81;97149.59;5026519;28;20194;-73
2023/01/05 11:23:57;;;;;;;20.60;11.63;;;;;;;13.03;59.96;97146.16;5027499;28;20195;-76
2023/01/05 11:26:27;;;;;;;22.60;12.13;;;;;;;13.10;59.23;97151.91;5027088;28;20193;-82
2023/01/05 11:28:54;;;;;;;16.27;11.80;;;;;;;13.07;59.44;97148.53;5026373;28;20352;-73
2023/01/05 11:31:21;;;;;;;15.93;11.57;;;;;;;13.01;59.28;97124.59;5027954;28;20626;-84
2023/01/05 11:33:57;;;;;;;14.70;11.13;;;;;;;13.02;59.33;97126.28;5026435;28;20760;-78
2023/01/05 11:36:25;;;;;;;18.53;12.43;;;;;;;12.90;59.69;97117.38;5026775;28;20223;-77
2023/01/05 11:38:55;;;;;;;20.20;12.80;;;;;;;12.96;59.82;97106.66;5023835;28;20201;-77
2023/01/05 11:41:23;;;;;;;21.97;12.33;;;;;;;13.12;59.70;97106.69;5026730;28;20641;-72
2023/01/05 11:43:53;;;;;;;20.53;14.53;;;;;;;13.17;59.55;97104.66;5026268;28;20193;-81
2023/01/05 11:46:21;;;;;;;19.60;13.77;;;;;;;13.17;59.80;97114.25;5024301;28;20207;-71
2023/01/05 11:48:55;;;;;;;17.00;12.67;;;;;;;13.31;59.59;97102.16;5025919;28;20255;-78
2023/01/05 11:51:40;;;;;;;16.77;12.13;;;;;;;13.13;59.79;97086.75;5025033;28;20194;-74
2023/01/05 11:54:32;;;;;;;19.63;12.50;;;;;;;13.24;59.47;97099.97;5025343;28;20210;-72
2023/01/05 11:57:26;;;;;;;21.07;13.23;;;;;;;13.25;59.89;97104.25;5027030;28;20259;-73
2023/01/05 11:59:54;;;;;;;20.43;14.17;;;;;;;13.25;60.00;97102.47;5020826;28;20207;-81
2023/01/05 12:03:02;;;;;;;18.40;12.53;;;;;;;13.24;59.55;97097.38;5025016;28;20267;-72
2023/01/05 12:05:44;;;;;;;19.07;13.23;;;;;;;13.35;59.45;97102.84;5026031;28;20573;-82
2023/01/05 12:08:20;;;;;;;17.60;11.40;;;;;;;13.35;59.71;97103.69;5024242;28;20192;-79
2023/01/05 12:11:04;;;;;;;17.43;12.20;;;;;;;13.42;59.36;97101.53;5027289;28;20682;-69
2023/01/05 12:13:53;;;;;;;19.60;13.40;;;;;;;13.35;59.03;97071.63;5026229;28;20217;-74
2023/01/05 12:16:20;;;;;;;22.30;14.00;;;;;;;13.52;59.11;97081.88;5029778;28;20225;-73
2023/01/05 12:19:09;;;;;;;19.97;14.00;;;;;;;13.58;59.16;97078.97;5029679;28;20197;-79